Time;durP1;ratioP1;P1;durP2;ratioP2;P2;SDS_P1;SDS_P2;PMS_P1;PMS_P2;Temp;Humidity;BMP_temperature;BMP_pressure;BME280_temperature;BME280_humidity;BME280_pressure;Samples;Min_cycle;Max_cycle;Signal;HPM_P1;HPM_P2
2021/03/26 00:00:30;;;;;;;24.10;9.13;;;;;;;6.44;71.77;100526.22;5064662;28;20043;-66
2021/03/26 00:02:56;;;;;;;20.30;8.82;;;;;;;6.45;71.71;100532.25;5046568;28;20023;-65
2021/03/26 00:05:22;;;;;;;19.35;7.80;;;;;;;6.40;71.84;100528.75;5064454;28;20020;-67
2021/03/26 00:07:47;;;;;;;19.67;7.70;;;;;;;6.35;71.56;100533.84;5064257;28;20036;-67
2021/03/26 00:10:14;;;;;;;25.98;8.75;;;;;;;6.35;71.64;100517.50;5064567;28;20090;-66
2021/03/26 00:12:40;;;;;;;17.95;7.68;;;;;;;6.32;71.71;100518.34;5046966;28;20033;-65
2021/03/26 00:15:07;;;;;;;23.13;8.32;;;;;;;6.28;71.50;100512.28;5068212;28;20452;-67
2021/03/26 00:17:32;;;;;;;18.35;7.43;;;;;;;6.27;71.41;100520.88;5067987;28;20032;-66
2021/03/26 00:19:57;;;;;;;27.48;7.38;;;;;;;6.27;71.38;100517.44;5068181;28;20029;-64
2021/03/26 00:22:23;;;;;;;17.85;7.15;;;;;;;6.24;71.46;100518.28;5069200;28;20476;-63
2021/03/26 00:24:49;;;;;;;16.02;6.47;;;;;;;6.18;71.37;100511.31;5087878;28;20024;-65
2021/03/26 00:27:17;;;;;;;15.15;7.35;;;;;;;6.14;71.30;100517.28;5088101;28;20051;-65
2021/03/26 00:29:43;;;;;;;16.48;7.80;;;;;;;6.09;71.22;100510.38;5087817;28;20119;-66
2021/03/26 00:32:08;;;;;;;19.92;7.95;;;;;;;6.06;71.08;100512.06;5087723;28;20048;-66
2021/03/26 00:34:34;;;;;;;18.00;7.10;;;;;;;5.97;71.25;100511.91;5087749;28;20055;-66
2021/03/26 00:37:02;;;;;;;19.38;8.27;;;;;;;5.95;70.56;100504.16;5087474;28;20035;-65
2021/03/26 00:39:27;;;;;;;22.08;9.77;;;;;;;5.97;70.86;100513.63;5087790;28;20024;-65
2021/03/26 00:41:52;;;;;;;19.20;8.30;;;;;;;5.90;71.05;100516.13;5087554;28;20054;-66
2021/03/26 00:44:18;;;;;;;26.95;8.90;;;;;;;5.82;71.19;100512.56;5087570;28;20024;-65
2021/03/26 00:46:43;;;;;;;24.05;8.98;;;;;;;5.80;71.44;100519.41;5069530;28;20111;-65
2021/03/26 00:49:09;;;;;;;26.90;9.95;;;;;;;5.80;71.43;100516.81;5087701;28;20036;-65
2021/03/26 00:51:36;;;;;;;23.70;11.48;;;;;;;5.73;71.91;100517.59;5087290;28;20050;-65
2021/03/26 00:54:01;;;;;;;31.92;11.00;;;;;;;5.70;72.06;100521.88;5087303;28;20046;-65
2021/03/26 00:56:26;;;;;;;26.10;11.30;;;;;;;5.64;72.09;100508.91;5087475;28;20020;-65
2021/03/26 00:58:52;;;;;;;33.30;13.55;;;;;;;5.69;71.91;100517.56;5087273;28;20025;-66
2021/03/26 01:01:18;;;;;;;30.15;13.05;;;;;;;5.64;72.30;100514.06;5087369;28;20464;-66
2021/03/26 01:03:43;;;;;;;34.83;14.40;;;;;;;5.63;72.19;100512.34;5087189;28;20349;-65
2021/03/26 01:06:09;;;;;;;36.35;14.98;;;;;;;5.65;72.36;100512.34;5087003;28;20089;-65
2021/03/26 01:08:36;;;;;;;41.58;15.48;;;;;;;5.54;72.54;100502.75;5087102;28;20028;-65
2021/03/26 01:11:18;;;;;;;37.92;16.75;;;;;;;5.50;72.75;100507.84;5086982;28;20028;-65
2021/03/26 01:13:44;;;;;;;;;;;;;;;5.44;72.74;100499.22;5087333;28;20027;-66
2021/03/26 01:16:12;;;;;;;39.92;16.23;;;;;;;5.39;72.80;100505.13;5086944;28;19916;-65
2021/03/26 01:18:42;;;;;;;41.40;16.45;;;;;;;5.26;73.24;100501.50;5086867;28;20021;-65
2021/03/26 01:21:10;;;;;;;38.58;17.27;;;;;;;5.22;73.53;100510.91;5086853;28;20069;-64
2021/03/26 01:23:35;;;;;;;47.70;19.58;;;;;;;5.13;74.08;100493.59;5086492;28;20054;-64
2021/03/26 01:26:01;;;;;;;47.42;18.35;;;;;;;5.14;74.15;100497.03;5086235;28;20115;-65
2021/03/26 01:28:29;;;;;;;49.28;19.98;;;;;;;5.11;74.18;100494.41;5087076;28;20078;-66
2021/03/26 01:30:55;;;;;;;45.03;19.40;;;;;;;5.08;74.59;100502.94;5086485;28;20377;-68
2021/03/26 01:33:21;;;;;;;40.78;17.67;;;;;;;5.10;74.35;100506.41;5086483;28;20031;-65
2021/03/26 01:35:48;;;;;;;47.22;19.17;;;;;;;5.00;74.56;100501.97;5086330;28;20139;-65
2021/03/26 01:38:13;;;;;;;50.97;20.55;;;;;;;4.96;74.92;100503.63;5086302;28;20103;-64
2021/03/26 01:40:44;;;;;;;51.00;20.15;;;;;;;4.90;75.12;100503.53;5086519;28;20365;-64
2021/03/26 01:43:25;;;;;;;47.22;20.60;;;;;;;4.89;75.43;100502.66;5086185;28;20025;-64
2021/03/26 01:45:52;;;;;;;47.33;20.58;;;;;;;4.81;75.64;100509.34;5086518;28;20021;-64
2021/03/26 01:48:29;;;;;;;48.67;22.40;;;;;;;4.69;76.19;100504.88;5086316;28;20017;-65
2021/03/26 01:50:58;;;;;;;39.90;19.00;;;;;;;4.79;76.20;100500.78;5067862;28;20064;-64
2021/03/26 01:53:25;;;;;;;54.78;23.00;;;;;;;4.72;76.66;100497.22;5086198;28;20068;-65
2021/03/26 01:55:52;;;;;;;54.33;23.55;;;;;;;4.68;76.93;100508.31;5085979;28;20058;-65
2021/03/26 01:58:23;;;;;;;47.17;18.92;;;;;;;4.74;76.81;100498.13;5086129;28;20031;-64
2021/03/26 02:00:53;;;;;;;55.67;22.88;;;;;;;4.71;77.05;100506.63;5086195;28;20100;-64
2021/03/26 02:03:21;;;;;;;60.95;25.65;;;;;;;4.65;77.26;100506.53;5086120;28;20028;-65
2021/03/26 02:05:48;;;;;;;66.25;25.83;;;;;;;4.69;77.14;100507.47;5085707;28;20020;-63
2021/03/26 02:08:15;;;;;;;68.18;28.75;;;;;;;4.56;77.41;100506.38;5085866;28;20043;-64
2021/03/26 02:10:45;;;;;;;70.38;27.45;;;;;;;4.54;77.30;100498.63;5085698;28;20123;-65
2021/03/26 02:13:21;;;;;;;68.97;25.35;;;;;;;4.57;77.33;100492.66;5085625;28;20024;-64
2021/03/26 02:15:48;;;;;;;65.45;28.05;;;;;;;4.45;77.66;100485.63;5085699;28;20055;-64
2021/03/26 02:18:23;;;;;;;67.30;24.65;;;;;;;4.41;78.01;100487.25;5085747;28;20173;-64
2021/03/26 02:20:54;;;;;;;66.32;25.88;;;;;;;4.48;78.12;100495.94;5085410;28;20086;-64
2021/03/26 02:23:23;;;;;;;68.32;28.65;;;;;;;4.46;78.42;100493.34;5085453;28;20060;-65
2021/03/26 02:25:49;;;;;;;55.05;25.75;;;;;;;4.50;78.58;100499.44;5085647;28;20024;-64
2021/03/26 02:28:18;;;;;;;66.45;28.98;;;;;;;4.66;78.25;100500.56;5067504;28;20369;-64
2021/03/26 02:30:47;;;;;;;58.00;25.50;;;;;;;4.65;78.28;100493.66;5085494;28;20388;-63
2021/03/26 02:33:14;;;;;;;67.72;27.15;;;;;;;4.78;78.04;100502.47;5085282;28;20338;-64
2021/03/26 02:35:45;;;;;;;63.42;26.25;;;;;;;4.83;78.41;100495.72;5085057;28;20032;-65
2021/03/26 02:38:16;;;;;;;55.20;22.48;;;;;;;4.89;77.79;100496.66;5085067;28;20028;-65
2021/03/26 02:41:02;;;;;;;51.50;20.52;;;;;;;4.86;78.19;100496.59;5085381;28;20517;-64
2021/03/26 02:43:48;;;;;;;55.53;24.55;;;;;;;4.78;78.37;100493.88;5085385;28;20032;-65
2021/03/26 02:46:18;;;;;;;51.97;21.73;;;;;;;4.87;78.39;100494.06;5074201;28;20070;-64
2021/03/26 02:48:58;;;;;;;72.00;27.38;;;;;;;4.87;78.54;100486.34;5085212;28;20039;-64
2021/03/26 02:51:32;;;;;;;73.45;27.33;;;;;;;4.72;79.03;100499.78;5085104;28;20043;-64
2021/03/26 02:54:09;;;;;;;81.25;35.42;;;;;;;4.64;79.53;100493.66;5085164;28;20020;-64
2021/03/26 02:56:42;;;;;;;90.07;34.28;;;;;;;4.63;79.66;100490.22;5085152;28;20031;-65
2021/03/26 02:59:20;;;;;;;86.25;31.90;;;;;;;4.63;79.71;100495.38;5067035;28;20572;-65
2021/03/26 03:01:49;;;;;;;81.88;34.22;;;;;;;4.64;79.83;100489.38;5085064;28;20024;-65
2021/03/26 03:04:20;;;;;;;82.43;31.25;;;;;;;4.69;79.72;100492.03;5085190;28;20024;-65
2021/03/26 03:06:52;;;;;;;95.82;35.42;;;;;;;4.70;79.70;100491.19;5084936;28;20052;-63
2021/03/26 03:09:19;;;;;;;103.88;40.63;;;;;;;4.71;79.81;100487.78;5085453;28;20046;-66
2021/03/26 03:11:50;;;;;;;94.03;38.17;;;;;;;4.73;80.02;100478.38;5084702;28;20473;-64
2021/03/26 03:14:38;;;;;;;98.90;37.53;;;;;;;4.81;79.78;100481.06;5085146;28;20111;-64
2021/03/26 03:17:17;;;;;;;97.55;38.75;;;;;;;4.87;79.82;100482.88;5084945;28;20435;-65
2021/03/26 03:19:55;;;;;;;98.80;39.63;;;;;;;4.92;79.42;100473.56;5084917;28;20099;-63
2021/03/26 03:22:59;;;;;;;95.55;34.05;;;;;;;4.98;79.29;100473.66;5084605;28;20023;-64
2021/03/26 03:25:27;;;;;;;106.18;38.35;;;;;;;4.92;79.41;100469.25;5075491;28;20049;-64
2021/03/26 03:28:03;;;;;;;105.35;38.15;;;;;;;4.96;79.33;100470.16;5084917;28;20028;-63
2021/03/26 03:30:28;;;;;;;99.80;36.60;;;;;;;4.89;79.75;100471.78;5084650;28;20032;-64
2021/03/26 03:33:48;;;;;;;88.55;34.13;;;;;;;4.99;79.58;100477.06;5084531;28;20027;-64
2021/03/26 03:36:21;;;;;;;90.53;39.05;;;;;;;4.92;79.81;100469.25;5059272;28;20619;-63
2021/03/26 03:38:52;;;;;;;90.25;36.08;;;;;;;4.98;79.88;100465.06;5062358;28;20029;-63
2021/03/26 03:41:36;;;;;;;85.38;33.88;;;;;;;5.10;79.87;100460.09;5062490;28;20049;-66
2021/03/26 03:44:12;;;;;;;85.95;33.58;;;;;;;5.12;79.73;100453.25;5062141;28;20033;-63
2021/03/26 03:47:07;;;;;;;97.32;37.60;;;;;;;5.26;79.53;100462.88;5062616;28;20033;-63
2021/03/26 03:49:50;;;;;;;98.57;39.30;;;;;;;5.23;79.37;100465.41;5062189;28;20029;-63
2021/03/26 03:52:29;;;;;;;98.57;37.88;;;;;;;5.14;79.45;100456.72;5065839;28;20032;-63
2021/03/26 03:55:09;;;;;;;101.28;39.33;;;;;;;5.11;79.88;100466.09;5066209;28;20508;-64
2021/03/26 03:58:16;;;;;;;118.82;41.30;;;;;;;5.06;79.98;100463.47;5065912;28;20041;-64
2021/03/26 04:00:47;;;;;;;76.70;30.40;;;;;;;5.21;79.54;100457.66;5065220;28;20052;-64
2021/03/26 04:03:19;;;;;;;106.60;42.33;;;;;;;5.10;80.21;100454.94;5065881;28;20033;-65
2021/03/26 04:05:54;;;;;;;93.53;39.90;;;;;;;5.10;80.33;100454.94;5066058;28;20056;-64
2021/03/26 04:08:29;;;;;;;95.25;37.13;;;;;;;5.17;80.28;100456.78;5065920;28;20035;-64
2021/03/26 04:11:08;;;;;;;89.50;35.30;;;;;;;5.25;80.05;100453.44;5082500;28;20032;-64
2021/03/26 04:13:41;;;;;;;99.10;41.50;;;;;;;5.40;79.40;100452.78;5088026;28;20076;-65
2021/03/26 04:16:10;;;;;;;95.10;38.03;;;;;;;5.31;79.51;100446.66;5087866;28;20063;-65
2021/03/26 04:18:41;;;;;;;119.50;44.83;;;;;;;5.27;79.80;100449.19;5087866;28;20107;-65
2021/03/26 04:21:24;;;;;;;106.05;36.28;;;;;;;5.30;79.90;100441.50;5087770;28;20026;-65
2021/03/26 04:23:57;;;;;;;116.57;42.38;;;;;;;5.26;79.86;100450.88;5087482;28;20105;-65
2021/03/26 04:26:34;;;;;;;128.70;44.97;;;;;;;5.17;79.99;100445.59;5087890;28;20044;-64
2021/03/26 04:29:06;;;;;;;113.45;41.25;;;;;;;5.09;80.44;100448.06;5087803;28;20055;-65
2021/03/26 04:31:39;;;;;;;146.30;49.47;;;;;;;5.00;80.73;100447.94;5086276;28;20468;-66
2021/03/26 04:34:08;;;;;;;132.55;47.85;;;;;;;5.12;80.67;100453.25;5087531;28;20028;-65
2021/03/26 04:36:45;;;;;;;107.53;35.78;;;;;;;5.00;81.41;100468.53;5087614;28;20020;-64
2021/03/26 04:39:17;;;;;;;106.72;39.90;;;;;;;5.02;81.57;100462.53;5087845;28;20024;-64
2021/03/26 04:42:06;;;;;;;;;;;;;;;5.01;81.53;100467.66;5087940;28;20423;-65
2021/03/26 04:45:04;;;;;;;86.88;27.73;;;;;;;4.99;81.88;100466.78;5087670;28;19991;-64
2021/03/26 04:47:37;;;;;;;127.25;45.60;;;;;;;4.86;82.24;100461.44;5075541;28;20040;-64
2021/03/26 04:50:17;;;;;;;175.63;56.95;;;;;;;4.80;82.60;100458.75;5087471;28;20435;-64
2021/03/26 04:52:52;;;;;;;169.75;58.13;;;;;;;4.75;82.75;100447.53;5068822;28;20020;-64
2021/03/26 04:55:25;;;;;;;166.27;55.63;;;;;;;4.85;82.74;100454.56;5087250;28;20044;-64
2021/03/26 04:58:10;;;;;;;190.40;61.95;;;;;;;4.88;82.61;100448.59;5087193;28;20441;-64
2021/03/26 05:00:42;;;;;;;171.10;54.78;;;;;;;4.89;82.62;100455.50;5086402;28;20539;-64
2021/03/26 05:03:13;;;;;;;159.82;56.97;;;;;;;4.82;82.49;100434.78;5087143;28;20012;-64
2021/03/26 05:06:06;;;;;;;158.10;53.53;;;;;;;4.82;82.45;100428.78;5087167;28;20384;-64
2021/03/26 05:08:33;;;;;;;172.38;56.35;;;;;;;4.90;82.27;100432.38;5073225;28;20036;-65
2021/03/26 05:11:01;;;;;;;159.27;49.55;;;;;;;4.96;81.95;100429.00;5086836;28;20027;-64
2021/03/26 05:13:39;;;;;;;180.63;57.40;;;;;;;4.86;82.05;100427.16;5086727;28;20028;-63
2021/03/26 05:16:12;;;;;;;173.57;57.88;;;;;;;4.77;82.35;100433.00;5086875;28;20023;-63
2021/03/26 05:19:19;;;;;;;164.07;51.58;;;;;;;4.78;82.54;100434.72;5087130;28;20020;-63
2021/03/26 05:21:51;;;;;;;176.63;57.40;;;;;;;4.76;82.45;100437.25;5024342;28;20093;-64
2021/03/26 05:24:37;;;;;;;191.52;61.30;;;;;;;4.76;82.48;100444.97;5024412;28;20058;-63
2021/03/26 05:27:07;;;;;;;161.55;52.13;;;;;;;4.78;82.47;100437.28;5024430;28;20037;-63
2021/03/26 05:29:34;;;;;;;159.77;57.40;;;;;;;4.84;82.61;100433.13;5024659;28;20057;-63
2021/03/26 05:32:17;;;;;;;155.07;55.08;;;;;;;4.87;82.66;100432.31;5023713;28;20075;-62
2021/03/26 05:34:51;;;;;;;174.55;62.50;;;;;;;4.95;82.60;100427.28;5024828;28;20117;-63
2021/03/26 05:37:42;;;;;;;148.23;50.05;;;;;;;5.08;82.42;100442.03;5024334;28;20022;-63
2021/03/26 05:40:41;;;;;;;137.05;48.28;;;;;;;5.11;82.37;100438.69;5024411;28;20038;-63
2021/03/26 05:43:39;;;;;;;121.75;45.80;;;;;;;5.13;82.76;100434.38;5020664;28;20144;-63
2021/03/26 05:46:23;;;;;;;113.10;47.40;;;;;;;5.35;83.37;100442.44;4981875;28;20064;-65
2021/03/26 05:49:04;;;;;;;110.38;43.80;;;;;;;5.61;83.78;100441.91;5004733;28;20037;-64
2021/03/26 05:51:46;;;;;;;97.38;40.75;;;;;;;5.90;83.64;100446.53;5011230;28;20089;-63
2021/03/26 05:54:30;;;;;;;121.43;48.67;;;;;;;6.12;82.44;100433.91;5083328;28;20027;-64
2021/03/26 05:57:13;;;;;;;113.07;44.92;;;;;;;6.06;81.85;100444.16;5086324;28;20058;-63
2021/03/26 05:59:57;;;;;;;121.95;48.47;;;;;;;5.99;81.86;100437.19;5086560;28;20445;-64
2021/03/26 06:03:00;;;;;;;112.72;45.30;;;;;;;5.93;81.68;100446.56;5086143;28;20028;-65
2021/03/26 06:05:50;;;;;;;104.57;42.63;;;;;;;5.92;81.10;100442.28;5086210;28;20103;-64
2021/03/26 06:08:33;;;;;;;105.05;42.40;;;;;;;5.99;81.18;100448.34;5086190;28;20054;-64
2021/03/26 06:11:18;;;;;;;119.25;48.17;;;;;;;5.99;80.78;100444.94;5086265;28;20030;-64
2021/03/26 06:13:50;;;;;;;112.20;44.78;;;;;;;6.04;80.87;100448.38;5085697;28;20036;-64
2021/03/26 06:16:29;;;;;;;108.73;46.03;;;;;;;6.04;81.06;100448.38;5085882;28;20032;-63
2021/03/26 06:19:00;;;;;;;92.32;39.95;;;;;;;6.09;80.89;100448.50;5085760;28;20111;-63
2021/03/26 06:21:32;;;;;;;96.03;40.20;;;;;;;6.08;80.66;100447.63;5085504;28;20845;-62
2021/03/26 06:24:38;;;;;;;103.20;41.33;;;;;;;6.06;80.73;100449.31;5085378;28;20059;-65
2021/03/26 06:27:25;;;;;;;94.18;39.55;;;;;;;6.21;80.48;100451.22;5103298;28;20035;-65
2021/03/26 06:30:14;;;;;;;104.20;41.28;;;;;;;6.29;80.51;100446.13;5106020;28;20146;-63
2021/03/26 06:32:43;;;;;;;100.10;42.08;;;;;;;6.36;80.02;100447.06;5087291;28;20024;-62
2021/03/26 06:35:11;;;;;;;99.18;40.05;;;;;;;6.43;79.95;100457.44;5105644;28;20049;-69
2021/03/26 06:38:18;;;;;;;104.50;43.40;;;;;;;6.50;80.11;100449.75;5105384;28;20030;-65
2021/03/26 06:40:46;;;;;;;92.70;39.65;;;;;;;6.62;79.08;100447.28;5087194;28;20051;-69
2021/03/26 06:43:48;;;;;;;93.05;41.63;;;;;;;6.55;79.23;100453.25;5105210;28;20042;-65
2021/03/26 06:46:36;;;;;;;88.90;35.47;;;;;;;6.63;78.45;100454.16;5105820;28;20016;-65
2021/03/26 06:49:07;;;;;;;89.38;39.83;;;;;;;6.54;78.83;100457.53;5105347;28;20032;-68
2021/03/26 06:51:57;;;;;;;89.15;41.63;;;;;;;6.51;78.85;100447.19;5105320;28;20034;-67
2021/03/26 06:54:47;;;;;;;93.90;40.75;;;;;;;6.62;78.45;100454.16;5105588;28;20047;-67
2021/03/26 06:57:39;;;;;;;102.43;41.63;;;;;;;6.61;78.32;100455.00;5105734;28;20032;-65
2021/03/26 07:00:29;;;;;;;78.65;29.63;;;;;;;6.64;77.93;100448.16;5105574;28;20016;-64
2021/03/26 07:03:43;;;;;;;101.30;40.40;;;;;;;6.51;78.04;100443.75;5105319;28;20490;-65
2021/03/26 07:06:11;;;;;;;91.60;37.20;;;;;;;6.51;77.94;100451.47;5105408;28;20034;-67
2021/03/26 07:08:58;;;;;;;93.28;37.83;;;;;;;6.53;78.26;100454.94;5087370;28;20020;-68
2021/03/26 07:11:49;;;;;;;77.18;34.00;;;;;;;6.57;78.39;100456.69;5105549;28;20077;-65
2021/03/26 07:14:43;;;;;;;78.63;37.53;;;;;;;6.68;78.43;100454.19;5105482;28;20027;-71
2021/03/26 07:17:39;;;;;;;85.05;34.97;;;;;;;6.81;78.02;100461.19;5105556;28;20037;-65
2021/03/26 07:20:25;;;;;;;88.38;38.38;;;;;;;6.82;77.59;100465.50;5105303;28;20054;-65
2021/03/26 07:23:06;;;;;;;81.25;34.50;;;;;;;6.92;78.02;100463.88;5106218;28;20020;-65
2021/03/26 07:25:37;;;;;;;95.20;38.93;;;;;;;6.93;77.89;100464.75;5109196;28;20032;-64
2021/03/26 07:28:24;;;;;;;74.80;34.53;;;;;;;7.12;77.26;100462.28;5109558;28;20050;-64
2021/03/26 07:31:03;;;;;;;92.05;37.28;;;;;;;7.07;76.61;100457.09;5109724;28;20045;-64
2021/03/26 07:33:41;;;;;;;62.63;26.50;;;;;;;7.23;74.83;100439.97;5109297;28;20042;-64
2021/03/26 07:36:32;;;;;;;50.38;19.25;;;;;;;7.11;74.77;100451.06;5109608;28;20445;-63
2021/03/26 07:39:19;;;;;;;60.00;25.13;;;;;;;6.99;75.44;100451.88;5109383;28;20024;-65
2021/03/26 07:42:20;;;;;;;75.28;29.73;;;;;;;7.00;75.14;100442.41;5109119;28;20067;-65
2021/03/26 07:45:04;;;;;;;74.70;31.83;;;;;;;6.96;75.24;100445.81;5109211;28;20095;-65
2021/03/26 07:47:41;;;;;;;73.43;31.48;;;;;;;6.94;75.97;100444.09;5109340;28;20035;-69
2021/03/26 07:50:25;;;;;;;52.30;20.17;;;;;;;7.22;74.63;100452.88;5109398;28;20040;-65
2021/03/26 07:52:56;;;;;;;61.65;24.00;;;;;;;6.92;75.61;100439.75;5108714;28;20028;-65
2021/03/26 07:55:43;;;;;;;75.60;27.77;;;;;;;6.85;76.05;100441.47;5109086;28;20077;-65
2021/03/26 07:58:46;;;;;;;88.20;34.35;;;;;;;6.84;76.63;100447.44;5109013;28;20100;-65
2021/03/26 08:01:33;;;;;;;52.58;22.95;;;;;;;6.93;76.69;100452.66;5108833;28;20467;-64
2021/03/26 08:04:31;;;;;;;61.78;25.77;;;;;;;7.01;75.50;100441.56;5108779;28;20083;-64
2021/03/26 08:07:26;;;;;;;46.05;18.83;;;;;;;6.97;75.17;100438.09;5108452;28;20028;-65
2021/03/26 08:09:57;;;;;;;61.33;25.23;;;;;;;7.18;75.12;100445.13;5108848;28;20016;-65
2021/03/26 08:12:31;;;;;;;44.93;20.13;;;;;;;7.38;73.71;100452.09;5108484;28;20016;-67
2021/03/26 08:15:02;;;;;;;52.85;22.65;;;;;;;7.40;74.36;100458.16;5108708;28;20265;-64
2021/03/26 08:17:37;;;;;;;70.82;31.83;;;;;;;7.44;75.00;100461.63;5108447;28;20046;-65
2021/03/26 08:20:35;;;;;;;70.97;32.63;;;;;;;7.89;75.87;100463.53;5108447;28;20038;-65
2021/03/26 08:23:25;;;;;;;72.28;33.08;;;;;;;8.42;72.98;100469.69;5089667;28;20059;-65
2021/03/26 08:26:08;;;;;;;69.10;28.55;;;;;;;8.73;71.11;100473.22;5108342;28;20126;-65
2021/03/26 08:28:43;;;;;;;60.08;23.52;;;;;;;8.77;68.81;100475.78;5108431;28;20020;-66
2021/03/26 08:31:50;;;;;;;52.25;24.50;;;;;;;8.28;68.85;100463.63;5108122;28;20020;-64
2021/03/26 08:34:33;;;;;;;52.25;21.27;;;;;;;7.80;70.03;100454.00;5090379;28;20103;-64
2021/03/26 08:37:35;;;;;;;42.90;20.13;;;;;;;7.38;71.24;100465.00;5108017;28;20024;-65
2021/03/26 08:40:04;;;;;;;76.22;29.75;;;;;;;7.05;73.13;100474.28;5108260;28;20024;-66
2021/03/26 08:42:36;;;;;;;91.95;37.05;;;;;;;6.74;74.51;100472.31;5107853;28;20028;-65
2021/03/26 08:45:21;;;;;;;86.32;35.33;;;;;;;6.68;75.32;100465.41;5108012;28;20038;-65
2021/03/26 08:48:05;;;;;;;75.82;32.72;;;;;;;6.78;75.35;100483.53;5107719;28;20028;-65
2021/03/26 08:50:46;;;;;;;74.43;30.98;;;;;;;6.89;74.45;100476.75;5108083;28;20028;-66
2021/03/26 08:53:33;;;;;;;87.95;33.65;;;;;;;6.88;74.54;100487.94;5107513;28;20035;-65
2021/03/26 08:56:10;;;;;;;65.32;27.73;;;;;;;6.93;73.66;100470.75;5108048;28;20404;-66
2021/03/26 08:59:10;;;;;;;63.30;26.45;;;;;;;6.90;73.33;100473.31;5107802;28;20016;-67
2021/03/26 09:01:41;;;;;;;68.40;25.88;;;;;;;6.76;73.81;100469.75;5107848;28;20027;-65
2021/03/26 09:04:22;;;;;;;70.63;32.03;;;;;;;6.76;73.96;100482.63;5107645;28;20024;-67
2021/03/26 09:07:07;;;;;;;79.35;35.42;;;;;;;6.68;74.63;100474.84;5107351;28;20074;-67
2021/03/26 09:09:50;;;;;;;80.38;35.38;;;;;;;6.71;74.66;100477.44;5107568;28;20103;-66
2021/03/26 09:12:39;;;;;;;89.03;35.00;;;;;;;6.83;74.94;100474.13;5107620;28;20061;-66
2021/03/26 09:15:27;;;;;;;74.50;31.50;;;;;;;6.89;74.53;100475.88;5096501;28;20040;-65
2021/03/26 09:18:04;;;;;;;73.68;32.58;;;;;;;7.00;74.13;100475.94;5107717;28;20028;-65
2021/03/26 09:20:38;;;;;;;81.43;33.97;;;;;;;6.93;74.59;100480.22;5107521;28;20024;-66
2021/03/26 09:23:33;;;;;;;75.07;31.92;;;;;;;7.12;74.57;100476.06;5106948;28;20368;-66
2021/03/26 09:26:12;;;;;;;63.20;24.45;;;;;;;7.37;74.07;100457.25;5107390;28;20044;-65
2021/03/26 09:28:42;;;;;;;58.97;23.75;;;;;;;7.60;73.13;100465.16;5107453;28;20035;-65
2021/03/26 09:31:38;;;;;;;60.78;28.88;;;;;;;7.69;72.85;100461.72;5107259;28;20080;-66
2021/03/26 09:34:15;;;;;;;57.15;24.58;;;;;;;7.74;73.06;100454.88;5107179;28;20028;-65
2021/03/26 09:36:43;;;;;;;68.40;29.15;;;;;;;7.93;71.87;100458.38;5106987;28;20087;-65
2021/03/26 09:39:15;;;;;;;43.53;19.90;;;;;;;8.11;71.07;100451.53;5107278;28;20059;-65
2021/03/26 09:41:47;;;;;;;58.35;26.55;;;;;;;8.04;70.70;100462.72;5106837;28;20071;-66
2021/03/26 09:44:31;;;;;;;54.55;26.17;;;;;;;7.91;72.00;100457.50;5106887;28;20042;-66
2021/03/26 09:47:26;;;;;;;44.30;20.40;;;;;;;8.21;70.58;100456.72;5106863;28;20030;-65
2021/03/26 09:50:18;;;;;;;45.75;20.27;;;;;;;8.22;70.44;100450.69;5106904;28;20024;-65
2021/03/26 09:52:46;;;;;;;45.03;20.03;;;;;;;8.16;70.81;100452.41;5106511;28;20039;-64
2021/03/26 09:55:28;;;;;;;49.97;24.35;;;;;;;8.28;70.18;100456.75;5106771;28;20024;-67
2021/03/26 09:58:31;;;;;;;44.70;19.50;;;;;;;8.39;70.35;100463.66;5106978;28;20024;-66
2021/03/26 10:01:07;;;;;;;46.63;20.92;;;;;;;8.59;69.74;100455.97;5106963;28;20451;-67
2021/03/26 10:03:42;;;;;;;45.22;20.25;;;;;;;8.85;68.62;100469.78;5088042;28;20460;-66
2021/03/26 10:06:37;;;;;;;34.10;15.50;;;;;;;9.03;68.41;100461.97;5106635;28;20027;-66
2021/03/26 10:12:04;;;;;;;40.83;18.88;;;;;;;8.89;67.55;100468.88;5106679;28;20044;-66
2021/03/26 10:14:34;;;;;;;45.28;20.88;;;;;;;8.77;67.59;100449.06;5088120;28;20046;-66
2021/03/26 10:17:12;;;;;;;42.85;17.90;;;;;;;8.93;66.84;100455.06;5106336;28;20032;-66
2021/03/26 10:19:44;;;;;;;36.75;18.35;;;;;;;8.87;66.23;100449.91;5106409;28;20149;-66
2021/03/26 10:22:21;;;;;;;45.72;21.10;;;;;;;8.60;67.48;100451.63;5106251;28;20500;-66
2021/03/26 10:24:53;;;;;;;46.40;20.67;;;;;;;8.59;67.39;100444.75;5105977;28;20127;-66
2021/03/26 10:27:32;;;;;;;43.15;20.40;;;;;;;8.45;67.95;100457.63;5106108;28;20032;-66
2021/03/26 10:30:06;;;;;;;40.58;18.15;;;;;;;8.54;68.11;100460.22;5106140;28;20020;-66
2021/03/26 10:32:34;;;;;;;40.28;19.55;;;;;;;8.49;67.67;100449.00;5106508;28;20032;-65
2021/03/26 10:35:15;;;;;;;36.25;16.77;;;;;;;8.25;68.61;100445.53;5106175;28;20091;-65
2021/03/26 10:37:53;;;;;;;49.55;19.65;;;;;;;8.19;69.06;100456.72;5106025;28;20024;-64
2021/03/26 10:40:43;;;;;;;37.00;16.00;;;;;;;7.99;69.44;100454.06;5106380;28;20020;-67
2021/03/26 10:43:21;;;;;;;46.45;20.83;;;;;;;7.62;70.63;100447.91;5087809;28;20110;-68
2021/03/26 10:45:52;;;;;;;48.90;20.15;;;;;;;7.53;71.15;100448.75;5106196;28;20028;-69
2021/03/26 10:48:49;;;;;;;42.30;21.23;;;;;;;7.52;71.21;100449.63;5106184;28;20369;-68
2021/03/26 10:51:53;;;;;;;48.47;21.67;;;;;;;7.42;71.94;100442.66;5087947;28;20132;-66
2021/03/26 10:54:30;;;;;;;49.38;21.25;;;;;;;7.37;72.32;100450.38;5106040;28;20418;-67
2021/03/26 10:57:33;;;;;;;43.85;21.77;;;;;;;7.44;72.05;100441.78;5087189;28;20063;-65
2021/03/26 11:00:00;;;;;;;;;;;;;;;7.49;71.87;100449.56;5106352;28;20019;-65
2021/03/26 11:02:41;;;;;;;50.20;22.20;;;;;;;7.42;72.36;100446.13;5105659;28;19915;-66
2021/03/26 11:05:27;;;;;;;49.60;23.77;;;;;;;7.29;73.14;100449.47;5105709;28;20087;-65
2021/03/26 11:08:01;;;;;;;43.40;21.83;;;;;;;7.38;73.24;100440.94;5105625;28;20411;-67
2021/03/26 11:11:16;;;;;;;51.97;22.80;;;;;;;7.46;72.88;100439.22;5087386;28;20042;-66
2021/03/26 11:14:18;;;;;;;43.05;21.50;;;;;;;7.48;72.76;100441.81;4985436;28;20125;-65
2021/03/26 11:17:17;;;;;;;48.00;20.97;;;;;;;7.47;72.78;100427.19;5003934;28;20101;-64
2021/03/26 11:19:47;;;;;;;37.30;15.50;;;;;;;7.52;72.34;100425.50;4998933;28;20043;-65
2021/03/26 11:22:22;;;;;;;52.90;23.42;;;;;;;7.29;73.18;100426.22;5003192;28;20033;-65
2021/03/26 11:25:09;;;;;;;55.97;22.95;;;;;;;7.33;73.64;100417.66;5003643;28;20096;-65
2021/03/26 11:27:43;;;;;;;52.28;22.70;;;;;;;7.26;74.16;100419.34;5003416;28;20152;-65
2021/03/26 11:30:18;;;;;;;46.78;20.08;;;;;;;7.31;74.68;100427.97;5003550;28;20042;-65
2021/03/26 11:32:49;;;;;;;45.42;21.98;;;;;;;7.46;74.29;100417.72;5003680;28;20126;-65
2021/03/26 11:35:20;;;;;;;51.13;22.55;;;;;;;7.50;74.25;100419.44;5003583;28;20073;-65
2021/03/26 11:38:01;;;;;;;49.30;21.63;;;;;;;7.54;74.42;100410.88;5003514;28;20092;-65
2021/03/26 11:40:35;;;;;;;52.42;22.63;;;;;;;7.57;74.52;100414.31;5003525;28;20040;-65
2021/03/26 11:43:12;;;;;;;47.05;21.20;;;;;;;7.57;74.27;100401.38;5003329;28;20058;-65
2021/03/26 11:45:45;;;;;;;37.53;17.70;;;;;;;7.56;74.49;100403.97;5003627;28;20038;-66
2021/03/26 11:48:17;;;;;;;45.45;20.55;;;;;;;7.59;74.81;100408.31;5003767;28;20034;-66
2021/03/26 11:50:49;;;;;;;35.30;18.40;;;;;;;7.58;74.55;100410.00;5065752;28;20045;-67
2021/03/26 11:53:32;;;;;;;47.30;19.58;;;;;;;7.59;74.31;100398.81;5084775;28;20095;-66
2021/03/26 11:56:08;;;;;;;52.67;23.33;;;;;;;7.56;74.70;100401.38;5085143;28;20036;-65
2021/03/26 11:58:56;;;;;;;51.58;22.13;;;;;;;7.65;74.65;100392.81;5085119;28;20418;-68
2021/03/26 12:01:27;;;;;;;48.55;21.52;;;;;;;7.81;73.55;100401.47;5085028;28;20027;-67
2021/03/26 12:04:07;;;;;;;44.05;20.92;;;;;;;7.67;74.06;100397.13;5084833;28;20032;-67
2021/03/26 12:06:45;;;;;;;47.78;19.50;;;;;;;7.66;73.87;100403.16;5084821;28;20028;-68
2021/03/26 12:09:48;;;;;;;50.55;22.13;;;;;;;7.65;74.00;100398.81;5085299;28;20060;-67